Time;durP1;ratioP1;P1;durP2;ratioP2;P2;SDS_P1;SDS_P2;PMS_P1;PMS_P2;Temp;Humidity;BMP_temperature;BMP_pressure;BME280_temperature;BME280_humidity;BME280_pressure;Samples;Min_cycle;Max_cycle;Signal;HPM_P1;HPM_P2
2022/03/12 00:01:39;;;;;;;11.57;4.30;;;;;;;-9.61;74.80;101493.58;1686002;84;21564;-67
2022/03/12 00:04:06;;;;;;;12.23;4.27;;;;;;;-9.65;74.97;101485.22;1706068;84;21775;-67
2022/03/12 00:06:34;;;;;;;9.90;4.47;;;;;;;-9.67;75.15;101477.86;1706133;83;21022;-70
2022/03/12 00:09:00;;;;;;;10.93;4.37;;;;;;;-9.65;75.00;101474.15;1706274;84;21101;-67
2022/03/12 00:11:35;;;;;;;11.27;4.40;;;;;;;-9.66;74.92;101476.19;1705949;84;21077;-68
2022/03/12 00:13:59;;;;;;;;;;;;;;;-9.71;74.92;101468.23;1708822;83;21038;-68
2022/03/12 00:16:26;;;;;;;10.67;4.03;;;;;;;-9.72;75.09;101466.48;1706682;84;21378;-68
2022/03/12 00:18:58;;;;;;;11.83;4.60;;;;;;;-9.73;75.17;101464.70;1705227;84;21089;-67
2022/03/12 00:21:35;;;;;;;9.93;4.20;;;;;;;-9.73;75.47;101460.51;1705846;84;21085;-67
2022/03/12 00:24:00;;;;;;;11.10;4.10;;;;;;;-9.80;75.86;101459.61;1705031;83;21151;-67
2022/03/12 00:26:29;;;;;;;9.17;4.03;;;;;;;-9.82;76.07;101456.44;1705754;84;21090;-68
2022/03/12 00:28:59;;;;;;;8.83;3.87;;;;;;;-9.84;76.23;101447.84;1729030;82;21062;-67
2022/03/12 00:31:26;;;;;;;10.73;4.80;;;;;;;-9.83;76.46;101449.59;1735833;82;20987;-68
2022/03/12 00:33:54;;;;;;;12.67;4.07;;;;;;;-9.83;76.53;101448.31;1735504;82;20994;-66
2022/03/12 00:36:23;;;;;;;11.67;3.90;;;;;;;-9.81;76.57;101442.94;1741454;81;21092;-67
2022/03/12 00:38:50;;;;;;;12.63;4.30;;;;;;;-9.80;76.56;101432.84;1749690;82;21021;-69
2022/03/12 00:41:16;;;;;;;11.03;4.33;;;;;;;-9.81;76.67;101435.28;1748553;82;21097;-67
2022/03/12 00:43:46;;;;;;;14.87;4.50;;;;;;;-9.80;76.66;101434.48;1749810;82;21033;-68
2022/03/12 00:46:15;;;;;;;11.33;4.93;;;;;;;-9.80;76.81;101426.48;1749227;82;21061;-68
2022/03/12 00:48:42;;;;;;;11.33;5.00;;;;;;;-9.77;76.94;101416.86;1745301;82;21053;-68
2022/03/12 00:51:09;;;;;;;15.97;5.30;;;;;;;-9.80;76.91;101425.56;1718528;83;21085;-70
2022/03/12 00:53:36;;;;;;;15.13;5.80;;;;;;;-9.84;77.07;101415.98;1720653;83;21224;-68
2022/03/12 00:56:05;;;;;;;15.30;5.93;;;;;;;-9.83;77.21;101417.73;1719089;83;21095;-66
2022/03/12 00:58:31;;;;;;;12.40;5.33;;;;;;;-9.84;77.18;101414.30;1719044;83;21149;-69
2022/03/12 01:00:59;;;;;;;17.23;6.03;;;;;;;-9.82;77.44;101415.66;1719983;83;21112;-69
2022/03/12 01:03:25;;;;;;;18.67;5.83;;;;;;;-9.79;77.72;101417.16;1720081;83;21077;-67
2022/03/12 01:06:00;;;;;;;18.75;5.78;;;;;;;-9.77;77.85;101416.47;1719850;83;20997;-67
2022/03/12 01:08:28;;;;;;;15.93;5.67;;;;;;;-9.76;77.53;101421.16;1719708;83;21628;-68
2022/03/12 01:10:58;;;;;;;14.28;5.62;;;;;;;-9.76;77.29;101418.62;1717375;83;21050;-67
2022/03/12 01:13:29;;;;;;;10.10;4.63;;;;;;;-9.78;77.15;101416.36;1721087;83;21045;-68
2022/03/12 01:15:57;;;;;;;17.33;5.30;;;;;;;-9.79;77.11;101415.48;1720892;83;21045;-68
2022/03/12 01:18:25;;;;;;;12.33;4.90;;;;;;;-9.81;77.25;101412.34;1720733;83;21013;-67
2022/03/12 01:20:52;;;;;;;14.37;5.40;;;;;;;-9.81;77.33;101408.52;1720361;83;21777;-67
2022/03/12 01:23:24;;;;;;;18.27;5.30;;;;;;;-9.82;77.38;101410.56;1719140;83;21045;-67
2022/03/12 01:25:52;;;;;;;18.67;4.93;;;;;;;-9.76;77.16;101408.42;1719833;83;21006;-67
2022/03/12 01:28:20;;;;;;;16.30;5.47;;;;;;;-9.78;77.04;101412.53;1719633;83;21034;-66
2022/03/12 01:30:50;;;;;;;15.57;5.43;;;;;;;-9.83;77.30;101416.45;1719676;83;21110;-68
2022/03/12 01:33:17;;;;;;;14.30;5.08;;;;;;;-9.85;77.61;101404.00;1719541;83;20994;-68
2022/03/12 01:35:47;;;;;;;13.23;5.03;;;;;;;-9.83;77.84;101406.26;1717521;83;21046;-67
2022/03/12 01:38:14;;;;;;;12.83;5.17;;;;;;;-9.80;77.87;101409.00;1704869;84;21014;-67
2022/03/12 01:40:43;;;;;;;10.23;4.90;;;;;;;-9.83;77.98;101398.61;1686135;84;21038;-67
2022/03/12 01:43:10;;;;;;;13.33;4.80;;;;;;;-9.76;77.97;101405.88;1705088;84;21416;-68
2022/03/12 01:45:37;;;;;;;9.60;4.40;;;;;;;-9.76;77.90;101405.47;1706920;84;21834;-68
2022/03/12 01:48:34;;;;;;;12.70;5.10;;;;;;;-9.74;77.82;101407.73;1704991;84;21070;-68
2022/03/12 01:55:20;;;;;;;14.87;4.83;;;;;;;-9.77;77.72;101402.45;1726548;82;20999;-68
2022/03/12 01:57:51;;;;;;;14.07;4.97;;;;;;;-9.79;77.86;101398.03;1736049;82;21460;-68
2022/03/12 02:00:26;;;;;;;;;;;;;;;-9.79;77.87;101401.46;1717927;82;21003;-68
2022/03/12 02:02:54;;;;;;;11.57;4.43;;;;;;;-9.78;78.02;101395.96;1736185;82;20178;-68
2022/03/12 02:05:25;;;;;;;12.00;5.50;;;;;;;-9.79;78.18;101396.36;1736824;82;21519;-67
2022/03/12 02:07:51;;;;;;;15.50;5.95;;;;;;;-9.80;78.31;101394.61;1735527;82;21015;-67
2022/03/12 02:10:22;;;;;;;12.73;5.17;;;;;;;-9.77;78.21;101399.02;1736293;82;21019;-68
2022/03/12 02:12:49;;;;;;;12.70;5.33;;;;;;;-9.75;78.32;101389.81;1736114;82;21031;-66
2022/03/12 02:15:18;;;;;;;13.40;5.00;;;;;;;-9.78;78.37;101390.46;1735830;82;21042;-66
2022/03/12 02:17:46;;;;;;;11.03;5.90;;;;;;;-9.79;78.83;101385.29;1735728;82;21033;-67
2022/03/12 02:20:20;;;;;;;14.83;5.87;;;;;;;-9.76;78.91;101388.02;1736550;82;21033;-66
2022/03/12 02:22:51;;;;;;;14.50;5.67;;;;;;;-9.77;78.90;101385.00;1735986;82;21296;-68
2022/03/12 02:25:18;;;;;;;12.15;5.20;;;;;;;-9.78;78.94;101389.59;1735988;82;21026;-67
2022/03/12 02:27:44;;;;;;;10.77;4.63;;;;;;;-9.79;78.98;101386.56;1735959;82;21073;-69
2022/03/12 02:30:12;;;;;;;11.70;5.17;;;;;;;-9.79;79.09;101383.61;1735994;82;21014;-67
2022/03/12 02:32:39;;;;;;;9.97;4.50;;;;;;;-9.80;79.17;101382.23;1734598;82;21648;-67
2022/03/12 02:35:10;;;;;;;11.57;5.07;;;;;;;-9.81;79.47;101374.98;1736293;82;21161;-68
2022/03/12 02:37:43;;;;;;;12.77;5.03;;;;;;;-9.81;79.48;101374.11;1745591;81;21041;-68
2022/03/12 02:40:12;;;;;;;9.40;4.80;;;;;;;-9.81;79.58;101366.45;1722509;82;21032;-69
2022/03/12 02:42:39;;;;;;;12.10;5.43;;;;;;;-9.82;79.80;101365.58;1749880;82;21523;-68
2022/03/12 02:45:11;;;;;;;21.30;6.90;;;;;;;-9.80;79.95;101364.39;1749651;82;21388;-67
2022/03/12 02:47:41;;;;;;;23.02;7.47;;;;;;;-9.81;80.01;101358.81;1750248;82;21194;-67
2022/03/12 02:50:09;;;;;;;14.70;6.47;;;;;;;-9.82;80.03;101360.48;1728345;82;20990;-68
2022/03/12 02:52:41;;;;;;;14.43;6.13;;;;;;;-9.82;80.14;101359.58;1719700;83;21018;-67
2022/03/12 02:59:13;;;;;;;16.23;5.77;;;;;;;-9.86;80.55;101347.44;1746927;82;20988;-68
2022/03/12 03:01:40;;;;;;;28.32;10.05;;;;;;;-9.90;80.82;101336.16;1750281;81;21318;-66
2022/03/12 03:04:08;;;;;;;21.50;7.80;;;;;;;-9.90;80.78;101337.83;1750388;82;21033;-66
2022/03/12 03:06:35;;;;;;;26.33;9.53;;;;;;;-9.89;80.90;101337.03;1750137;82;21632;-66
2022/03/12 03:09:04;;;;;;;28.53;11.17;;;;;;;-9.92;81.03;101336.45;1750185;82;21013;-68
2022/03/12 03:11:35;;;;;;;35.80;13.00;;;;;;;-9.93;81.14;101330.47;1750080;82;21112;-66
2022/03/12 03:14:02;;;;;;;47.98;17.10;;;;;;;-9.95;81.31;101338.41;1750915;81;20990;-68
2022/03/12 03:16:30;;;;;;;62.23;21.67;;;;;;;-9.96;81.40;101332.83;1750315;82;20952;-67
2022/03/12 03:18:57;;;;;;;62.17;22.07;;;;;;;-9.94;81.62;101326.17;1749643;82;21034;-66
2022/03/12 03:21:26;;;;;;;43.87;14.60;;;;;;;-9.93;81.85;101329.20;1749753;82;21085;-69
2022/03/12 03:23:54;;;;;;;35.07;12.37;;;;;;;-9.92;82.08;101323.30;1749769;82;21026;-66
2022/03/12 03:26:40;;;;;;;32.50;11.97;;;;;;;-9.89;82.22;101325.56;1748824;82;21346;-68
2022/03/12 03:29:07;;;;;;;24.73;9.63;;;;;;;-9.89;82.36;101321.73;1750296;82;21102;-68
2022/03/12 03:31:36;;;;;;;31.77;12.67;;;;;;;-9.88;82.44;101319.70;1749292;82;21006;-67
2022/03/12 03:34:04;;;;;;;27.90;10.27;;;;;;;-9.88;82.54;101318.42;1749335;82;21065;-68
2022/03/12 03:36:30;;;;;;;33.87;11.87;;;;;;;-9.89;82.45;101320.46;1748783;82;21082;-69
2022/03/12 03:38:59;;;;;;;24.90;10.27;;;;;;;-9.87;82.71;101318.89;1734885;81;21502;-67
2022/03/12 03:41:26;;;;;;;23.00;9.60;;;;;;;-9.85;82.92;101314.38;1735067;82;21011;-68
2022/03/12 03:43:53;;;;;;;25.30;10.13;;;;;;;-9.82;83.05;101312.42;1716598;82;21035;-67
2022/03/12 03:46:22;;;;;;;30.67;11.57;;;;;;;-9.77;83.15;101313.62;1734989;82;22067;-67
2022/03/12 03:48:51;;;;;;;27.57;12.40;;;;;;;-9.73;83.30;101314.27;1734441;82;21073;-67
2022/03/12 03:51:20;;;;;;;28.57;11.73;;;;;;;-9.69;83.42;101311.55;1737545;82;21134;-70
2022/03/12 03:53:48;;;;;;;31.97;10.83;;;;;;;-9.62;83.51;101303.09;1737520;82;21070;-68
2022/03/12 03:56:15;;;;;;;22.93;9.53;;;;;;;-9.53;83.37;101306.22;1737749;82;21049;-67
2022/03/12 03:58:43;;;;;;;31.87;10.80;;;;;;;-9.48;83.12;101304.35;1737786;82;21039;-68
2022/03/12 04:01:18;;;;;;;24.93;9.70;;;;;;;-9.48;83.17;101300.53;1736230;82;21047;-67
2022/03/12 04:03:51;;;;;;;30.97;9.93;;;;;;;-9.44;83.19;101294.84;1737435;82;21050;-67
2022/03/12 04:06:20;;;;;;;22.33;9.00;;;;;;;-9.41;82.87;101297.56;1737310;82;20983;-67
2022/03/12 04:08:52;;;;;;;19.87;7.50;;;;;;;-9.39;82.82;101296.00;1737188;82;20993;-67
2022/03/12 04:11:22;;;;;;;20.13;8.83;;;;;;;-9.31;82.65;101292.27;1737620;82;21485;-69
2022/03/12 04:13:51;;;;;;;25.30;9.55;;;;;;;-9.27;82.97;101297.14;1737312;82;21034;-67
2022/03/12 04:16:20;;;;;;;;;;;;;;;-9.19;82.99;101297.23;1739930;82;21062;-69
2022/03/12 04:18:48;;;;;;;26.37;9.87;;;;;;;-9.10;83.02;101302.49;1735781;81;20143;-66
2022/03/12 04:21:16;;;;;;;29.63;9.63;;;;;;;-9.15;83.34;101300.06;1735643;82;21018;-66
2022/03/12 04:23:45;;;;;;;22.87;9.50;;;;;;;-9.12;83.29;101297.69;1736201;82;21074;-68
2022/03/12 04:26:14;;;;;;;24.53;9.67;;;;;;;-9.08;83.19;101294.53;1735606;82;21508;-66
2022/03/12 04:28:41;;;;;;;22.07;9.60;;;;;;;-9.01;83.24;101285.98;1736595;82;21205;-68
2022/03/12 04:31:13;;;;;;;26.33;10.15;;;;;;;-8.97;83.25;101290.09;1737664;82;21011;-66
2022/03/12 04:33:41;;;;;;;22.90;9.73;;;;;;;-8.91;83.22;101292.98;1717522;82;21007;-67
2022/03/12 04:36:12;;;;;;;28.87;10.27;;;;;;;-8.88;82.94;101287.17;1737357;82;21492;-68
2022/03/12 04:38:41;;;;;;;26.10;8.90;;;;;;;-8.84;82.56;101290.81;1737398;82;21026;-68
2022/03/12 04:41:08;;;;;;;23.60;8.63;;;;;;;-8.79;82.42;101286.84;1737939;82;21243;-68
2022/03/12 04:43:35;;;;;;;26.83;10.83;;;;;;;-8.75;82.43;101288.80;1735185;82;21585;-68
2022/03/12 04:46:02;;;;;;;26.87;10.73;;;;;;;-8.68;82.26;101285.41;1736459;82;21047;-67
2022/03/12 04:48:29;;;;;;;21.70;9.63;;;;;;;-8.63;81.90;101283.53;1732033;82;21098;-67
2022/03/12 04:50:57;;;;;;;30.47;11.50;;;;;;;-8.56;81.55;101289.08;1705001;84;21602;-68
2022/03/12 04:53:24;;;;;;;31.20;11.13;;;;;;;-8.58;81.50;101289.41;1704808;84;21177;-68
2022/03/12 04:55:52;;;;;;;23.07;9.50;;;;;;;-8.58;81.41;101284.67;1704779;84;20995;-67
2022/03/12 04:58:20;;;;;;;25.87;10.67;;;;;;;-8.54;81.33;101290.45;1707628;84;21068;-68
2022/03/12 05:00:47;;;;;;;27.50;10.83;;;;;;;-8.51;81.34;101289.34;1696872;82;20987;-68
2022/03/12 05:03:18;;;;;;;20.73;9.93;;;;;;;-8.47;81.36;101290.89;1737396;82;21035;-68
2022/03/12 05:05:51;;;;;;;19.73;9.03;;;;;;;-8.45;81.13;101287.16;1737140;82;21889;-68
2022/03/12 05:08:22;;;;;;;33.27;12.13;;;;;;;-8.43;80.83;101283.42;1736961;82;20980;-67
2022/03/12 05:10:51;;;;;;;29.48;12.55;;;;;;;-8.42;80.86;101287.73;1734561;82;21049;-67
2022/03/12 05:13:22;;;;;;;34.03;14.17;;;;;;;-8.43;80.87;101281.74;1734282;82;21074;-67
2022/03/12 05:15:52;;;;;;;27.65;11.08;;;;;;;-8.38;81.02;101290.91;1734231;82;21812;-68
2022/03/12 05:18:20;;;;;;;32.40;12.63;;;;;;;-8.34;81.00;101286.07;1733881;82;21593;-67
2022/03/12 05:20:48;;;;;;;41.40;14.73;;;;;;;-8.29;81.00;101284.66;1734124;82;21070;-68
2022/03/12 05:23:18;;;;;;;36.37;12.30;;;;;;;-8.26;80.87;101277.19;1734154;82;21081;-68
2022/03/12 05:25:48;;;;;;;31.83;11.50;;;;;;;-8.20;80.79;101278.31;1734285;82;21026;-67
2022/03/12 05:28:23;;;;;;;37.47;13.63;;;;;;;-8.14;80.62;101278.64;1734078;82;21065;-68
2022/03/12 05:30:50;;;;;;;32.57;13.30;;;;;;;-7.88;81.04;101274.61;1734502;82;21260;-68
2022/03/12 05:33:19;;;;;;;37.43;14.93;;;;;;;-7.10;82.57;101264.28;1734056;82;21245;-66
2022/03/12 05:35:49;;;;;;;44.63;17.13;;;;;;;-5.99;82.48;101261.71;1734382;82;21558;-68
2022/03/12 05:38:16;;;;;;;40.70;18.42;;;;;;;-4.83;79.50;101263.94;1734187;81;21558;-68
2022/03/12 05:40:43;;;;;;;41.48;17.92;;;;;;;-3.63;76.18;101260.33;1734212;82;21034;-67
2022/03/12 05:43:13;;;;;;;52.48;20.23;;;;;;;-2.42;72.46;101255.20;1734309;82;21520;-68
2022/03/12 05:45:39;;;;;;;48.87;21.37;;;;;;;-1.26;68.91;101254.13;1734816;82;21249;-67
2022/03/12 05:48:10;;;;;;;43.42;22.27;;;;;;;-0.14;64.77;101249.76;1734139;82;21062;-69
2022/03/12 05:52:33;;;;;;;53.10;25.63;;;;;;;1.69;55.04;101246.66;1882410;75;24094;-68
2022/03/12 05:55:00;;;;;;;57.15;26.00;;;;;;;2.48;52.58;101244.84;1858656;77;20926;-69
2022/03/12 05:57:26;;;;;;;54.83;26.55;;;;;;;3.32;49.21;101245.02;1858485;77;21234;-68
2022/03/12 05:59:54;;;;;;;52.90;26.93;;;;;;;4.05;44.42;101250.42;1858552;77;21025;-68
2022/03/12 06:02:21;;;;;;;51.35;25.17;;;;;;;4.54;42.11;101240.34;1858308;77;21040;-69
2022/03/12 06:04:47;;;;;;;46.42;25.57;;;;;;;4.95;41.30;101243.58;1859065;77;21033;-67
2022/03/12 06:07:14;;;;;;;45.10;23.87;;;;;;;5.34;39.61;101239.34;1858953;77;21508;-70
2022/03/12 06:09:43;;;;;;;45.43;24.30;;;;;;;5.75;38.83;101233.28;1858788;77;20929;-68
2022/03/12 06:12:17;;;;;;;49.80;23.30;;;;;;;6.18;37.52;101238.09;1827902;77;21078;-68
2022/03/12 06:14:39;;;;;;;42.80;21.95;;;;;;;6.55;35.39;101235.84;1857565;77;21068;-68
2022/03/12 06:17:06;;;;;;;36.73;19.65;;;;;;;6.93;35.30;101231.34;1855162;77;20972;-70
2022/03/12 06:19:32;;;;;;;33.40;18.30;;;;;;;7.31;33.06;101230.26;1851584;77;20999;-68
2022/03/12 06:21:59;;;;;;;34.78;18.77;;;;;;;7.33;32.02;101221.95;1851671;77;21159;-68
2022/03/12 06:24:26;;;;;;;33.58;17.05;;;;;;;7.41;32.24;101228.89;1851195;77;21119;-69
2022/03/12 06:26:52;;;;;;;32.48;16.52;;;;;;;7.82;30.64;101225.11;1851836;77;21026;-69
2022/03/12 06:29:19;;;;;;;28.12;15.88;;;;;;;7.99;30.19;101219.29;1851320;77;21013;-68
2022/03/12 06:31:45;;;;;;;27.75;15.35;;;;;;;8.14;29.62;101227.03;1851534;77;21046;-68
2022/03/12 06:34:12;;;;;;;30.92;15.30;;;;;;;8.44;29.69;101222.81;1851251;77;21212;-67
2022/03/12 06:36:44;;;;;;;32.10;14.13;;;;;;;8.77;28.84;101219.81;1851707;77;21081;-68
2022/03/12 06:39:09;;;;;;;31.85;14.18;;;;;;;9.12;28.01;101218.93;1851474;77;21093;-68
2022/03/12 06:41:43;;;;;;;25.57;14.13;;;;;;;9.52;27.49;101215.71;1851456;77;21073;-68
2022/03/12 06:44:07;;;;;;;28.87;14.95;;;;;;;9.68;25.94;101213.27;1850460;77;21027;-67
2022/03/12 06:46:35;;;;;;;25.90;14.33;;;;;;;9.57;25.96;101211.25;1851565;77;21119;-68
2022/03/12 06:49:04;;;;;;;23.85;13.13;;;;;;;9.61;27.08;101207.68;1841790;77;20997;-70
2022/03/12 06:51:33;;;;;;;26.25;13.60;;;;;;;9.84;26.18;101212.11;1779634;79;21054;-68
2022/03/12 06:54:00;;;;;;;22.62;13.70;;;;;;;10.07;26.25;101212.17;1767396;81;21033;-68
2022/03/12 06:56:28;;;;;;;23.83;13.50;;;;;;;10.28;26.49;101206.58;1779393;79;21054;-69
2022/03/12 06:58:55;;;;;;;22.05;12.58;;;;;;;10.53;25.86;101207.40;1767317;81;21239;-69
2022/03/12 07:01:21;;;;;;;24.00;12.20;;;;;;;10.70;25.45;101207.09;1752470;81;21053;-69
2022/03/12 07:03:50;;;;;;;25.80;13.45;;;;;;;10.68;25.70;101200.52;1779394;80;21086;-68
2022/03/12 07:06:18;;;;;;;24.90;11.48;;;;;;;10.76;25.71;101198.17;1766404;81;21561;-68
2022/03/12 07:08:46;;;;;;;21.15;12.35;;;;;;;11.05;25.72;101191.83;1779410;80;21015;-68
2022/03/12 07:11:13;;;;;;;19.02;10.82;;;;;;;11.28;24.42;101186.50;1766363;81;21220;-68
2022/03/12 07:13:39;;;;;;;21.33;11.10;;;;;;;11.46;25.10;101184.75;1748453;82;21110;-68
2022/03/12 07:16:07;;;;;;;17.67;9.53;;;;;;;11.66;23.65;101183.38;1766358;81;21066;-69
2022/03/12 07:18:35;;;;;;;17.75;9.05;;;;;;;11.66;23.64;101177.64;1779359;80;21092;-69
2022/03/12 07:21:01;;;;;;;16.70;8.50;;;;;;;11.60;24.17;101174.32;1766738;81;21542;-69
2022/03/12 07:23:30;;;;;;;17.30;8.20;;;;;;;11.89;24.67;101165.25;1779389;80;21539;-68
2022/03/12 07:25:56;;;;;;;14.28;7.40;;;;;;;12.01;22.94;101164.48;1766405;81;21592;-68
2022/03/12 07:28:27;;;;;;;14.20;7.12;;;;;;;11.91;23.17;101159.45;1748621;82;21015;-69
2022/03/12 07:30:54;;;;;;;15.90;7.33;;;;;;;12.28;23.32;101158.92;1766738;81;21046;-68
2022/03/12 07:33:21;;;;;;;13.18;7.20;;;;;;;12.10;22.31;101157.64;1779641;80;21078;-68
2022/03/12 07:35:48;;;;;;;13.15;6.90;;;;;;;11.72;23.22;101158.17;1766641;81;21134;-67
2022/03/12 07:38:15;;;;;;;14.78;7.28;;;;;;;12.04;23.62;101155.19;1779353;80;21090;-68
2022/03/12 07:40:41;;;;;;;15.75;7.40;;;;;;;12.58;23.10;101147.50;1766580;81;21030;-68
2022/03/12 07:43:08;;;;;;;15.15;7.28;;;;;;;12.94;22.28;101136.72;1779439;80;21062;-68
2022/03/12 07:45:35;;;;;;;16.02;7.20;;;;;;;13.25;21.97;101138.86;1748591;82;21042;-68
2022/03/12 07:48:02;;;;;;;11.22;6.50;;;;;;;13.60;21.69;101133.78;1766519;81;21315;-68
2022/03/12 07:50:29;;;;;;;12.28;6.97;;;;;;;13.79;20.74;101136.67;1779183;80;21086;-70
2022/03/12 07:52:57;;;;;;;13.98;8.33;;;;;;;13.57;20.29;101134.76;1755769;79;21113;-68
2022/03/12 07:55:24;;;;;;;16.82;7.92;;;;;;;13.19;21.38;101134.18;1754000;81;21058;-69
2022/03/12 07:57:51;;;;;;;14.40;7.35;;;;;;;13.10;20.98;101134.47;1754119;81;21125;-68
2022/03/12 08:00:17;;;;;;;16.60;7.53;;;;;;;13.18;20.75;101126.28;1754113;81;21526;-68
2022/03/12 08:02:47;;;;;;;15.45;7.17;;;;;;;13.22;20.70;101131.42;1753920;81;21015;-69
2022/03/12 08:05:16;;;;;;;20.55;7.50;;;;;;;13.51;20.57;101128.80;1754174;81;21057;-69
2022/03/12 08:07:43;;;;;;;15.68;6.87;;;;;;;13.84;20.51;101122.80;1753956;81;21042;-69
2022/03/12 08:10:09;;;;;;;14.63;6.70;;;;;;;14.03;20.59;101120.37;1753975;81;21106;-69
2022/03/12 08:12:38;;;;;;;14.18;6.83;;;;;;;14.27;19.95;101114.19;1753777;81;21495;-68
2022/03/12 08:15:12;;;;;;;16.67;7.42;;;;;;;13.61;19.78;101112.54;1753569;81;21089;-68
2022/03/12 08:17:39;;;;;;;11.85;6.78;;;;;;;13.31;20.54;101110.92;1753722;81;21089;-69
2022/03/12 08:20:08;;;;;;;12.60;7.58;;;;;;;13.20;20.65;101106.83;1753871;81;21629;-68
2022/03/12 08:22:41;;;;;;;11.10;6.78;;;;;;;13.17;20.71;101100.30;1754032;81;21097;-69
2022/03/12 08:25:10;;;;;;;9.50;5.45;;;;;;;13.34;20.75;101101.55;1754115;81;21768;-69
2022/03/12 08:27:37;;;;;;;12.30;4.45;;;;;;;13.77;20.19;101101.44;1754011;81;21301;-69
2022/03/12 08:30:07;;;;;;;8.88;5.30;;;;;;;13.92;19.79;101106.20;1754207;81;21066;-68
2022/03/12 08:32:36;;;;;;;7.85;4.70;;;;;;;13.96;19.78;101104.30;1754143;81;21054;-68
2022/03/12 08:35:07;;;;;;;7.75;4.78;;;;;;;13.93;19.19;101102.63;1754354;81;21015;-70
2022/03/12 08:37:34;;;;;;;;;;;;;;;14.39;19.14;101098.30;1756435;81;21149;-67
2022/03/12 08:40:05;;;;;;;9.58;4.60;;;;;;;14.93;18.15;101091.41;1754258;81;20246;-68
2022/03/12 08:42:30;;;;;;;7.97;4.33;;;;;;;15.34;18.24;101091.52;1753755;81;21031;-69
2022/03/12 08:44:58;;;;;;;7.65;4.40;;;;;;;15.47;17.17;101091.42;1753668;81;21066;-68
2022/03/12 08:47:25;;;;;;;7.62;4.10;;;;;;;15.20;17.62;101085.45;1753880;81;21117;-70
2022/03/12 08:49:52;;;;;;;7.60;4.37;;;;;;;15.13;16.87;101090.16;1761906;81;21194;-69
2022/03/12 08:52:20;;;;;;;8.40;4.42;;;;;;;15.01;16.73;101086.67;1780241;79;21545;-69
2022/03/12 08:54:47;;;;;;;7.33;4.42;;;;;;;14.80;17.02;101093.23;1813430;79;21036;-69
2022/03/12 08:57:14;;;;;;;9.88;4.60;;;;;;;14.77;17.22;101080.11;1766764;80;21048;-69
2022/03/12 08:59:40;;;;;;;8.15;4.90;;;;;;;14.50;17.21;101078.49;1816061;79;21135;-69
2022/03/12 09:02:09;;;;;;;7.53;4.20;;;;;;;14.56;17.68;101079.16;1769433;81;21205;-69
2022/03/12 09:04:36;;;;;;;6.25;4.15;;;;;;;14.63;17.11;101070.48;1815846;79;20985;-69
2022/03/12 09:07:05;;;;;;;6.92;4.25;;;;;;;14.69;17.16;101071.58;1768633;80;21069;-69
2022/03/12 09:09:32;;;;;;;8.85;4.03;;;;;;;14.37;17.12;101074.11;1813234;79;21009;-69
2022/03/12 09:12:00;;;;;;;6.37;4.08;;;;;;;13.52;17.27;101069.19;1766307;80;20994;-69
2022/03/12 09:14:29;;;;;;;8.65;4.25;;;;;;;13.09;18.33;101063.10;1766135;80;21218;-69
2022/03/12 09:16:56;;;;;;;6.45;4.12;;;;;;;13.31;18.43;101065.48;1812885;79;21513;-69
2022/03/12 09:19:24;;;;;;;8.35;3.83;;;;;;;13.43;18.26;101073.47;1766271;80;21048;-69
2022/03/12 09:21:51;;;;;;;7.45;4.47;;;;;;;13.63;17.23;101065.71;1812806;79;21025;-69
2022/03/12 09:24:18;;;;;;;8.35;4.42;;;;;;;13.32;17.36;101057.98;1766288;81;21787;-69
2022/03/12 09:26:45;;;;;;;8.65;4.30;;;;;;;13.18;17.63;101054.44;1766511;80;21206;-69
2022/03/12 09:29:13;;;;;;;12.00;5.22;;;;;;;13.11;17.13;101046.30;1812830;79;21025;-70
2022/03/12 09:31:40;;;;;;;7.83;4.53;;;;;;;12.64;17.92;101049.98;1777256;80;21012;-70
2022/03/12 09:34:07;;;;;;;6.53;3.90;;;;;;;12.71;17.98;101044.92;1815066;79;21047;-69
2022/03/12 09:36:36;;;;;;;6.95;4.47;;;;;;;13.09;17.99;101048.13;1814871;79;21075;-68
2022/03/12 09:39:04;;;;;;;8.38;3.80;;;;;;;13.28;17.88;101051.52;1814598;79;22037;-69
2022/03/12 09:41:30;;;;;;;8.10;4.95;;;;;;;13.18;17.02;101047.83;1814503;79;21083;-69
2022/03/12 09:43:58;;;;;;;9.85;5.00;;;;;;;13.06;17.44;101038.95;1814642;79;21019;-70
2022/03/12 09:46:24;;;;;;;9.78;5.37;;;;;;;13.10;18.13;101035.30;1814801;79;20984;-69
2022/03/12 09:48:51;;;;;;;11.22;5.42;;;;;;;13.27;18.26;101035.19;1814384;79;21510;-69
2022/03/12 09:51:18;;;;;;;9.18;5.35;;;;;;;13.38;18.28;101027.78;1766513;81;21884;-69
2022/03/12 09:53:45;;;;;;;9.08;5.08;;;;;;;13.40;18.07;101025.95;1762804;79;21069;-69
2022/03/12 09:56:12;;;;;;;11.38;6.28;;;;;;;13.58;18.06;101021.34;1793784;80;21057;-70
2022/03/12 09:58:40;;;;;;;8.78;5.60;;;;;;;13.81;17.47;101026.28;1762278;80;21104;-68
2022/03/12 10:01:06;;;;;;;9.65;5.53;;;;;;;13.77;17.73;101022.02;1793936;80;21005;-69
2022/03/12 10:03:33;;;;;;;11.35;6.78;;;;;;;13.70;18.54;101023.16;1762459;81;21136;-69
2022/03/12 10:06:01;;;;;;;13.30;6.87;;;;;;;13.52;17.49;101022.88;1793755;80;21005;-70
2022/03/12 10:08:27;;;;;;;12.35;7.47;;;;;;;13.12;17.67;101013.64;1762427;80;20994;-69
2022/03/12 10:10:56;;;;;;;17.48;7.53;;;;;;;12.52;18.93;101014.70;1793622;80;21092;-69
2022/03/12 10:13:22;;;;;;;13.75;7.28;;;;;;;12.49;18.56;101005.10;1762204;81;20997;-70
2022/03/12 10:15:49;;;;;;;14.43;7.70;;;;;;;12.41;18.75;101000.95;1793926;79;21526;-69
2022/03/12 10:18:20;;;;;;;11.30;7.45;;;;;;;12.18;19.26;101002.52;1762405;80;21021;-69
2022/03/12 10:20:48;;;;;;;14.35;8.43;;;;;;;12.25;19.38;101001.41;1793492;80;21013;-69
2022/03/12 10:23:15;;;;;;;15.32;8.55;;;;;;;12.24;18.93;100990.89;1762509;81;21026;-69
2022/03/12 10:25:45;;;;;;;10.43;6.20;;;;;;;11.58;19.32;100993.63;1794165;80;21116;-69
2022/03/12 10:28:13;;;;;;;17.80;7.92;;;;;;;10.98;20.02;100996.52;1762392;80;21221;-69
2022/03/12 10:30:40;;;;;;;14.23;7.05;;;;;;;10.62;20.39;100997.80;1794103;80;21537;-70
2022/03/12 10:33:07;;;;;;;15.32;7.33;;;;;;;10.60;21.08;100982.48;1762620;81;21506;-70
2022/03/12 10:35:36;;;;;;;16.48;7.08;;;;;;;10.80;21.20;100978.06;1793714;80;21565;-69
2022/03/12 10:38:11;;;;;;;18.02;6.85;;;;;;;11.15;21.20;100972.81;1762660;81;21607;-71
2022/03/12 10:40:38;;;;;;;11.75;7.08;;;;;;;11.43;20.99;100961.92;1793832;80;22189;-69
2022/03/12 10:43:12;;;;;;;11.00;6.17;;;;;;;11.88;20.58;100966.86;1762458;80;21080;-70
2022/03/12 10:45:46;;;;;;;8.55;5.05;;;;;;;11.98;20.65;100962.63;1793382;80;21108;-69
2022/03/12 10:48:13;;;;;;;8.53;4.95;;;;;;;12.02;20.42;100957.68;1762533;81;21084;-69
2022/03/12 10:50:45;;;;;;;10.45;6.20;;;;;;;11.94;19.89;100950.85;1794097;80;21005;-69
2022/03/12 10:53:15;;;;;;;15.45;6.28;;;;;;;11.74;19.95;100951.85;1795648;79;21198;-70
2022/03/12 10:55:45;;;;;;;10.95;5.92;;;;;;;11.46;20.63;100940.77;1797408;79;21560;-69
2022/03/12 10:58:24;;;;;;;10.48;6.30;;;;;;;11.24;20.87;100943.56;1797275;79;21036;-68
2022/03/12 11:01:00;;;;;;;12.85;6.33;;;;;;;11.17;21.05;100928.82;1797518;79;21040;-69
2022/03/12 11:03:32;;;;;;;11.78;5.25;;;;;;;11.03;21.44;100927.41;1797446;79;21043;-68
2022/03/12 11:05:59;;;;;;;8.10;4.33;;;;;;;11.04;21.68;100926.52;1797688;79;21085;-69
2022/03/12 11:08:31;;;;;;;14.43;5.95;;;;;;;10.96;22.12;100924.98;1797149;79;21045;-67
2022/03/12 11:11:15;;;;;;;12.88;5.42;;;;;;;10.89;21.96;100925.13;1797597;79;21024;-69
2022/03/12 11:13:51;;;;;;;10.78;5.20;;;;;;;10.73;22.37;100913.25;1796693;79;21024;-69
2022/03/12 11:16:32;;;;;;;9.07;4.43;;;;;;;10.64;22.17;100926.19;1797705;79;20975;-69
2022/03/12 11:19:10;;;;;;;9.70;4.72;;;;;;;10.47;22.63;100920.48;1797231;79;21041;-69
2022/03/12 11:21:54;;;;;;;8.73;4.70;;;;;;;10.43;22.63;100921.00;1797458;79;21064;-68
2022/03/12 11:24:24;;;;;;;8.30;4.30;;;;;;;10.27;22.57;100924.41;1795829;79;21072;-68
2022/03/12 11:26:58;;;;;;;7.40;4.40;;;;;;;10.13;22.93;100933.07;1797282;79;21032;-69
2022/03/12 11:29:27;;;;;;;12.45;4.70;;;;;;;9.97;23.42;100926.42;1797309;79;21603;-69
2022/03/12 11:32:02;;;;;;;10.28;4.67;;;;;;;9.75;23.73;100920.28;1797653;79;21100;-68
2022/03/12 11:34:39;;;;;;;8.55;4.55;;;;;;;9.48;24.21;100916.48;1797133;79;21010;-69
2022/03/12 11:37:16;;;;;;;9.05;4.20;;;;;;;9.15;24.96;100924.55;1797208;79;21221;-67